sensor_id;sensor_type;location;lat;lon;timestamp;pressure;altitude;pressure_sealevel;temperature;humidity
66430;BME280;53242;51.694;10.006;2023-01-24T00:02:01;101711.03;;;2.08;81.81
66430;BME280;53242;51.694;10.006;2023-01-24T00:04:24;101709.34;;;2.07;82.05
66430;BME280;53242;51.694;10.006;2023-01-24T00:06:46;101707.97;;;2.00;81.48
66430;BME280;53242;51.694;10.006;2023-01-24T00:09:09;101705.22;;;2.03;81.24
66430;BME280;53242;51.694;10.006;2023-01-24T00:11:31;101706.72;;;2.07;80.32
66430;BME280;53242;51.694;10.006;2023-01-24T00:13:53;101713.63;;;2.08;80.41
66430;BME280;53242;51.694;10.006;2023-01-24T00:16:20;101724.53;;;2.14;79.91
66430;BME280;53242;51.694;10.006;2023-01-24T00:18:43;101712.69;;;2.09;79.00
66430;BME280;53242;51.694;10.006;2023-01-24T00:21:11;101712.09;;;2.20;79.34
66430;BME280;53242;51.694;10.006;2023-01-24T00:23:36;101719.09;;;2.19;79.94
66430;BME280;53242;51.694;10.006;2023-01-24T00:25:59;101717.41;;;2.18;80.13
66430;BME280;53242;51.694;10.006;2023-01-24T00:28:21;101713.69;;;2.22;79.69
66430;BME280;53242;51.694;10.006;2023-01-24T00:30:44;101708.16;;;2.28;79.79
66430;BME280;53242;51.694;10.006;2023-01-24T00:33:06;101710.00;;;2.26;79.93
66430;BME280;53242;51.694;10.006;2023-01-24T00:35:29;101699.66;;;2.25;79.86
66430;BME280;53242;51.694;10.006;2023-01-24T00:37:52;101695.56;;;2.21;80.38
66430;BME280;53242;51.694;10.006;2023-01-24T00:40:14;101701.44;;;2.24;80.38
66430;BME280;53242;51.694;10.006;2023-01-24T00:42:37;101700.56;;;2.24;80.57
66430;BME280;53242;51.694;10.006;2023-01-24T00:45:00;101703.28;;;2.22;80.76
66430;BME280;53242;51.694;10.006;2023-01-24T00:47:24;101695.94;;;2.29;80.66
66430;BME280;53242;51.694;10.006;2023-01-24T00:49:46;101701.66;;;2.36;80.54
66430;BME280;53242;51.694;10.006;2023-01-24T00:52:09;101700.44;;;2.27;80.74
66430;BME280;53242;51.694;10.006;2023-01-24T00:54:32;101699.84;;;2.22;81.41
66430;BME280;53242;51.694;10.006;2023-01-24T00:56:54;101698.97;;;2.37;80.57
66430;BME280;53242;51.694;10.006;2023-01-24T00:59:17;101696.97;;;2.26;80.52
66430;BME280;53242;51.694;10.006;2023-01-24T01:01:39;101698.22;;;2.35;80.75
66430;BME280;53242;51.694;10.006;2023-01-24T01:04:02;101698.47;;;2.30;80.54
66430;BME280;53242;51.694;10.006;2023-01-24T01:06:25;101698.69;;;2.42;80.47
66430;BME280;53242;51.694;10.006;2023-01-24T01:08:47;101694.75;;;2.51;79.75
66430;BME280;53242;51.694;10.006;2023-01-24T01:11:09;101692.38;;;2.46;80.28
66430;BME280;53242;51.694;10.006;2023-01-24T01:13:32;101691.47;;;2.47;79.54
66430;BME280;53242;51.694;10.006;2023-01-24T01:16:02;101688.50;;;2.53;80.07
66430;BME280;53242;51.694;10.006;2023-01-24T01:18:24;101686.16;;;2.49;80.38
66430;BME280;53242;51.694;10.006;2023-01-24T01:20:50;101698.09;;;2.53;80.12
66430;BME280;53242;51.694;10.006;2023-01-24T01:23:15;101696.34;;;2.53;80.38
66430;BME280;53242;51.694;10.006;2023-01-24T01:25:38;101695.13;;;2.59;79.91
66430;BME280;53242;51.694;10.006;2023-01-24T01:28:00;101702.22;;;2.57;79.94
66430;BME280;53242;51.694;10.006;2023-01-24T01:30:23;101695.31;;;2.56;79.96
66430;BME280;53242;51.694;10.006;2023-01-24T01:32:46;101694.94;;;2.32;80.55
66430;BME280;53242;51.694;10.006;2023-01-24T01:35:09;101703.91;;;2.42;79.28
66430;BME280;53242;51.694;10.006;2023-01-24T01:37:31;101706.56;;;2.26;80.33
66430;BME280;53242;51.694;10.006;2023-01-24T01:39:54;101709.00;;;2.13;80.54
66430;BME280;53242;51.694;10.006;2023-01-24T01:42:16;101710.84;;;2.27;79.91
66430;BME280;53242;51.694;10.006;2023-01-24T01:44:38;101713.28;;;2.30;79.59
66430;BME280;53242;51.694;10.006;2023-01-24T01:47:03;101713.59;;;2.24;79.36
66430;BME280;53242;51.694;10.006;2023-01-24T01:49:28;101719.50;;;2.27;79.24
66430;BME280;53242;51.694;10.006;2023-01-24T01:51:55;101708.25;;;2.27;78.91
66430;BME280;53242;51.694;10.006;2023-01-24T01:54:23;101719.16;;;2.34;79.16
66430;BME280;53242;51.694;10.006;2023-01-24T01:56:54;101732.03;;;2.21;79.03
66430;BME280;53242;51.694;10.006;2023-01-24T01:59:26;101719.09;;;2.19;79.18
66430;BME280;53242;51.694;10.006;2023-01-24T02:01:50;101729.84;;;2.13;78.87
66430;BME280;53242;51.694;10.006;2023-01-24T02:04:21;101727.31;;;2.11;79.34
66430;BME280;53242;51.694;10.006;2023-01-24T02:09:14;101717.66;;;2.29;79.08
66430;BME280;53242;51.694;10.006;2023-01-24T02:11:40;101718.56;;;2.28;78.82
66430;BME280;53242;51.694;10.006;2023-01-24T02:14:04;101714.63;;;2.37;78.37
66430;BME280;53242;51.694;10.006;2023-01-24T02:16:45;101708.06;;;2.30;78.46
66430;BME280;53242;51.694;10.006;2023-01-24T02:19:11;101717.06;;;2.24;78.54
66430;BME280;53242;51.694;10.006;2023-01-24T02:21:38;101716.06;;;2.27;78.29
66430;BME280;53242;51.694;10.006;2023-01-24T02:24:18;101714.88;;;2.33;77.98
66430;BME280;53242;51.694;10.006;2023-01-24T02:26:44;101725.03;;;2.37;78.37
66430;BME280;53242;51.694;10.006;2023-01-24T02:29:10;101724.78;;;2.26;78.67
66430;BME280;53242;51.694;10.006;2023-01-24T02:34:18;101723.59;;;2.32;77.99
66430;BME280;53242;51.694;10.006;2023-01-24T02:36:41;101721.91;;;2.46;77.71
66430;BME280;53242;51.694;10.006;2023-01-24T02:39:08;101720.63;;;2.54;77.53
66430;BME280;53242;51.694;10.006;2023-01-24T02:41:47;101719.19;;;2.64;77.50
66430;BME280;53242;51.694;10.006;2023-01-24T02:44:24;101717.75;;;2.58;78.12
66430;BME280;53242;51.694;10.006;2023-01-24T02:46:48;101713.00;;;2.51;78.50
66430;BME280;53242;51.694;10.006;2023-01-24T02:49:10;101714.31;;;2.58;78.67
66430;BME280;53242;51.694;10.006;2023-01-24T02:51:33;101719.44;;;2.59;78.03
66430;BME280;53242;51.694;10.006;2023-01-24T02:54:14;101720.19;;;2.61;77.75
66430;BME280;53242;51.694;10.006;2023-01-24T02:56:36;101710.72;;;2.60;77.90
66430;BME280;53242;51.694;10.006;2023-01-24T02:59:18;101705.88;;;2.69;77.33
66430;BME280;53242;51.694;10.006;2023-01-24T03:01:43;101701.88;;;2.63;77.60
66430;BME280;53242;51.694;10.006;2023-01-24T03:04:05;101697.81;;;2.73;78.13
66430;BME280;53242;51.694;10.006;2023-01-24T03:06:29;101692.19;;;2.65;77.55
66430;BME280;53242;51.694;10.006;2023-01-24T03:08:51;101699.94;;;2.67;77.69
66430;BME280;53242;51.694;10.006;2023-01-24T03:11:19;101699.41;;;2.60;77.27
66430;BME280;53242;51.694;10.006;2023-01-24T03:13:42;101697.13;;;2.70;77.15
66430;BME280;53242;51.694;10.006;2023-01-24T03:16:24;101695.06;;;2.60;77.74
66430;BME280;53242;51.694;10.006;2023-01-24T03:19:05;101695.63;;;2.66;77.89
66430;BME280;53242;51.694;10.006;2023-01-24T03:21:46;101701.00;;;2.62;77.40
66430;BME280;53242;51.694;10.006;2023-01-24T03:24:27;101701.94;;;2.61;76.92
66430;BME280;53242;51.694;10.006;2023-01-24T03:27:09;101700.28;;;2.44;76.76
66430;BME280;53242;51.694;10.006;2023-01-24T03:29:50;101700.63;;;2.54;77.10
66430;BME280;53242;51.694;10.006;2023-01-24T03:32:32;101705.66;;;2.57;77.18
66430;BME280;53242;51.694;10.006;2023-01-24T03:35:13;101703.38;;;2.67;77.62
66430;BME280;53242;51.694;10.006;2023-01-24T03:37:35;101705.88;;;2.69;76.47
66430;BME280;53242;51.694;10.006;2023-01-24T03:40:18;101703.28;;;2.69;76.51
66430;BME280;53242;51.694;10.006;2023-01-24T03:42:43;101708.97;;;2.45;77.35
66430;BME280;53242;51.694;10.006;2023-01-24T03:47:51;101704.16;;;2.53;74.99
66430;BME280;53242;51.694;10.006;2023-01-24T03:50:21;101705.16;;;2.67;75.57
66430;BME280;53242;51.694;10.006;2023-01-24T03:53:06;101706.94;;;2.50;76.92
66430;BME280;53242;51.694;10.006;2023-01-24T03:55:29;101692.97;;;2.51;76.55
66430;BME280;53242;51.694;10.006;2023-01-24T03:57:52;101697.34;;;2.51;76.07
66430;BME280;53242;51.694;10.006;2023-01-24T04:00:15;101695.00;;;2.46;76.07
66430;BME280;53242;51.694;10.006;2023-01-24T04:02:42;101699.19;;;2.49;75.70
66430;BME280;53242;51.694;10.006;2023-01-24T04:05:05;101694.34;;;2.42;75.58
66430;BME280;53242;51.694;10.006;2023-01-24T04:07:39;101693.72;;;2.53;75.33
66430;BME280;53242;51.694;10.006;2023-01-24T04:10:04;101696.53;;;2.34;76.37
66430;BME280;53242;51.694;10.006;2023-01-24T04:12:33;101694.25;;;2.28;75.98
66430;BME280;53242;51.694;10.006;2023-01-24T04:14:56;101695.22;;;2.27;76.64
66430;BME280;53242;51.694;10.006;2023-01-24T04:17:19;101683.34;;;2.37;76.18
66430;BME280;53242;51.694;10.006;2023-01-24T04:19:46;101678.31;;;2.18;76.28
66430;BME280;53242;51.694;10.006;2023-01-24T04:22:09;101684.44;;;2.17;76.79
66430;BME280;53242;51.694;10.006;2023-01-24T04:24:33;101675.81;;;2.01;77.39
66430;BME280;53242;51.694;10.006;2023-01-24T04:26:56;101681.94;;;2.16;76.90
66430;BME280;53242;51.694;10.006;2023-01-24T04:29:23;101678.91;;;2.23;76.42
66430;BME280;53242;51.694;10.006;2023-01-24T04:31:47;101681.91;;;2.32;76.03
66430;BME280;53242;51.694;10.006;2023-01-24T04:34:16;101675.16;;;2.43;75.86
66430;BME280;53242;51.694;10.006;2023-01-24T04:36:38;101672.81;;;2.39;75.67
66430;BME280;53242;51.694;10.006;2023-01-24T04:39:01;101680.47;;;2.42;75.72
66430;BME280;53242;51.694;10.006;2023-01-24T04:41:37;101674.13;;;2.46;75.69
66430;BME280;53242;51.694;10.006;2023-01-24T04:44:00;101678.19;;;2.36;75.67
66430;BME280;53242;51.694;10.006;2023-01-24T04:46:23;101686.59;;;2.41;75.71
66430;BME280;53242;51.694;10.006;2023-01-24T04:48:49;101680.81;;;2.36;76.47
66430;BME280;53242;51.694;10.006;2023-01-24T04:51:12;101676.94;;;2.43;76.30
66430;BME280;53242;51.694;10.006;2023-01-24T04:53:37;101681.50;;;2.54;76.11
66430;BME280;53242;51.694;10.006;2023-01-24T04:56:01;101679.19;;;2.49;76.19
66430;BME280;53242;51.694;10.006;2023-01-24T04:58:25;101679.34;;;2.46;75.68
66430;BME280;53242;51.694;10.006;2023-01-24T05:00:48;101685.91;;;2.53;74.87
66430;BME280;53242;51.694;10.006;2023-01-24T05:03:10;101683.06;;;2.42;75.44
66430;BME280;53242;51.694;10.006;2023-01-24T05:05:34;101690.34;;;2.51;75.19
66430;BME280;53242;51.694;10.006;2023-01-24T05:07:57;101695.31;;;2.56;75.22
66430;BME280;53242;51.694;10.006;2023-01-24T05:10:20;101682.75;;;2.32;76.05
66430;BME280;53242;51.694;10.006;2023-01-24T05:12:45;101691.75;;;2.42;75.67
66430;BME280;53242;51.694;10.006;2023-01-24T05:15:15;101697.25;;;2.52;75.21
66430;BME280;53242;51.694;10.006;2023-01-24T05:17:38;101688.81;;;2.33;75.79
66430;BME280;53242;51.694;10.006;2023-01-24T05:20:02;101701.44;;;2.24;75.91
66430;BME280;53242;51.694;10.006;2023-01-24T05:22:25;101691.06;;;2.39;75.00
66430;BME280;53242;51.694;10.006;2023-01-24T05:24:47;101704.25;;;2.36;74.83
66430;BME280;53242;51.694;10.006;2023-01-24T05:27:11;101704.97;;;2.23;75.71
66430;BME280;53242;51.694;10.006;2023-01-24T05:29:38;101705.84;;;2.38;74.89
66430;BME280;53242;51.694;10.006;2023-01-24T05:32:00;101697.03;;;2.41;74.27
66430;BME280;53242;51.694;10.006;2023-01-24T05:34:23;101703.31;;;2.53;74.41
66430;BME280;53242;51.694;10.006;2023-01-24T05:36:46;101709.19;;;2.56;74.55
66430;BME280;53242;51.694;10.006;2023-01-24T05:39:09;101709.84;;;2.60;73.93
66430;BME280;53242;51.694;10.006;2023-01-24T05:41:31;101704.91;;;2.55;74.17
66430;BME280;53242;51.694;10.006;2023-01-24T05:43:55;101705.59;;;2.43;74.16
66430;BME280;53242;51.694;10.006;2023-01-24T05:46:22;101719.06;;;2.35;75.02
66430;BME280;53242;51.694;10.006;2023-01-24T05:49:11;101711.63;;;2.43;74.71
66430;BME280;53242;51.694;10.006;2023-01-24T05:51:34;101719.03;;;2.51;74.58
66430;BME280;53242;51.694;10.006;2023-01-24T05:53:56;101708.53;;;2.37;75.20
66430;BME280;53242;51.694;10.006;2023-01-24T05:56:46;101711.81;;;2.40;74.46
66430;BME280;53242;51.694;10.006;2023-01-24T05:59:08;101714.91;;;2.47;74.62
66430;BME280;53242;51.694;10.006;2023-01-24T06:01:32;101709.66;;;2.33;74.25
66430;BME280;53242;51.694;10.006;2023-01-24T06:03:55;101712.59;;;2.26;75.28
66430;BME280;53242;51.694;10.006;2023-01-24T06:06:22;101707.78;;;2.51;73.75
66430;BME280;53242;51.694;10.006;2023-01-24T06:08:45;101711.72;;;2.58;73.68
66430;BME280;53242;51.694;10.006;2023-01-24T06:11:34;101721.72;;;2.50;74.23
66430;BME280;53242;51.694;10.006;2023-01-24T06:14:03;101720.84;;;2.35;75.69
66430;BME280;53242;51.694;10.006;2023-01-24T06:16:27;101731.00;;;2.23;74.62
66430;BME280;53242;51.694;10.006;2023-01-24T06:18:50;101729.66;;;2.32;74.59
66430;BME280;53242;51.694;10.006;2023-01-24T06:24:15;101736.25;;;2.54;73.88
66430;BME280;53242;51.694;10.006;2023-01-24T06:26:48;101738.22;;;2.50;73.97
66430;BME280;53242;51.694;10.006;2023-01-24T06:29:13;101742.84;;;2.45;74.73
66430;BME280;53242;51.694;10.006;2023-01-24T06:39:52;101752.75;;;2.38;75.60
66430;BME280;53242;51.694;10.006;2023-01-24T06:42:18;101751.34;;;2.33;76.17
66430;BME280;53242;51.694;10.006;2023-01-24T06:44:41;101756.63;;;2.15;76.46
66430;BME280;53242;51.694;10.006;2023-01-24T06:47:03;101761.34;;;2.24;76.65
66430;BME280;53242;51.694;10.006;2023-01-24T06:49:25;101762.09;;;2.26;76.28
66430;BME280;53242;51.694;10.006;2023-01-24T06:51:49;101769.31;;;2.21;76.03
66430;BME280;53242;51.694;10.006;2023-01-24T06:54:12;101776.31;;;2.21;75.62
66430;BME280;53242;51.694;10.006;2023-01-24T06:56:34;101771.34;;;2.16;75.07
66430;BME280;53242;51.694;10.006;2023-01-24T06:58:57;101773.25;;;2.12;76.14
66430;BME280;53242;51.694;10.006;2023-01-24T07:01:19;101776.06;;;2.09;75.65
66430;BME280;53242;51.694;10.006;2023-01-24T07:03:42;101782.28;;;2.07;76.00
66430;BME280;53242;51.694;10.006;2023-01-24T07:06:04;101782.28;;;2.07;75.42
66430;BME280;53242;51.694;10.006;2023-01-24T07:08:26;101780.75;;;2.19;75.00
66430;BME280;53242;51.694;10.006;2023-01-24T07:10:49;101784.38;;;2.00;75.77
66430;BME280;53242;51.694;10.006;2023-01-24T07:13:11;101782.84;;;2.12;75.47
66430;BME280;53242;51.694;10.006;2023-01-24T07:15:34;101782.09;;;2.10;75.36
66430;BME280;53242;51.694;10.006;2023-01-24T07:17:56;101786.06;;;2.01;75.43
66430;BME280;53242;51.694;10.006;2023-01-24T07:20:26;101782.84;;;2.12;75.18
66430;BME280;53242;51.694;10.006;2023-01-24T07:22:48;101789.16;;;2.24;75.01
66430;BME280;53242;51.694;10.006;2023-01-24T07:25:17;101789.41;;;2.03;74.70
66430;BME280;53242;51.694;10.006;2023-01-24T07:27:42;101786.88;;;2.18;74.87
66430;BME280;53242;51.694;10.006;2023-01-24T07:30:05;101797.91;;;2.23;75.45
66430;BME280;53242;51.694;10.006;2023-01-24T07:32:27;101795.66;;;2.33;74.49
66430;BME280;53242;51.694;10.006;2023-01-24T07:34:49;101802.50;;;2.18;75.10
66430;BME280;53242;51.694;10.006;2023-01-24T07:37:12;101800.84;;;2.17;74.92
66430;BME280;53242;51.694;10.006;2023-01-24T07:39:34;101799.69;;;2.22;74.92
66430;BME280;53242;51.694;10.006;2023-01-24T07:41:57;101800.44;;;2.40;74.56
66430;BME280;53242;51.694;10.006;2023-01-24T07:44:19;101806.31;;;2.28;75.18
66430;BME280;53242;51.694;10.006;2023-01-24T07:46:41;101808.09;;;2.27;74.82
66430;BME280;53242;51.694;10.006;2023-01-24T07:49:04;101816.41;;;2.18;74.88
66430;BME280;53242;51.694;10.006;2023-01-24T07:51:27;101816.41;;;2.18;75.45
66430;BME280;53242;51.694;10.006;2023-01-24T07:53:49;101810.19;;;2.37;74.87
66430;BME280;53242;51.694;10.006;2023-01-24T07:56:12;101801.78;;;2.32;75.12
66430;BME280;53242;51.694;10.006;2023-01-24T07:58:34;101797.56;;;2.29;74.67
66430;BME280;53242;51.694;10.006;2023-01-24T08:00:57;101806.84;;;2.35;74.86
66430;BME280;53242;51.694;10.006;2023-01-24T08:03:19;101812.47;;;2.43;74.93
66430;BME280;53242;51.694;10.006;2023-01-24T08:05:42;101801.44;;;2.38;74.73
66430;BME280;53242;51.694;10.006;2023-01-24T08:08:04;101806.06;;;2.33;75.04
66430;BME280;53242;51.694;10.006;2023-01-24T08:10:27;101809.19;;;2.23;74.51
66430;BME280;53242;51.694;10.006;2023-01-24T08:12:51;101798.50;;;2.44;74.29
66430;BME280;53242;51.694;10.006;2023-01-24T08:15:13;101812.78;;;2.37;75.08
66430;BME280;53242;51.694;10.006;2023-01-24T08:17:36;101811.53;;;2.44;74.13
66430;BME280;53242;51.694;10.006;2023-01-24T08:19:59;101811.59;;;2.26;74.71
66430;BME280;53242;51.694;10.006;2023-01-24T08:22:21;101814.25;;;2.42;73.96
66430;BME280;53242;51.694;10.006;2023-01-24T08:24:43;101819.84;;;2.51;74.23
66430;BME280;53242;51.694;10.006;2023-01-24T08:27:07;101814.81;;;2.32;74.41
66430;BME280;53242;51.694;10.006;2023-01-24T08:29:29;101814.72;;;2.49;74.31
66430;BME280;53242;51.694;10.006;2023-01-24T08:31:51;101811.88;;;2.38;74.63
66430;BME280;53242;51.694;10.006;2023-01-24T08:34:14;101816.41;;;2.50;74.27
66430;BME280;53242;51.694;10.006;2023-01-24T08:36:36;101824.56;;;2.44;73.92
66430;BME280;53242;51.694;10.006;2023-01-24T08:38:59;101818.59;;;2.42;74.31
66430;BME280;53242;51.694;10.006;2023-01-24T08:41:21;101828.34;;;2.38;74.34
66430;BME280;53242;51.694;10.006;2023-01-24T08:43:43;101827.59;;;2.52;73.76
66430;BME280;53242;51.694;10.006;2023-01-24T08:46:06;101832.72;;;2.54;73.87
66430;BME280;53242;51.694;10.006;2023-01-24T08:48:28;101825.47;;;2.59;73.61
66430;BME280;53242;51.694;10.006;2023-01-24T08:50:51;101835.41;;;2.68;73.47
66430;BME280;53242;51.694;10.006;2023-01-24T08:53:13;101838.28;;;2.63;73.03
66430;BME280;53242;51.694;10.006;2023-01-24T08:55:36;101845.16;;;2.65;73.25
66430;BME280;53242;51.694;10.006;2023-01-24T08:58:00;101835.00;;;2.44;73.86
66430;BME280;53242;51.694;10.006;2023-01-24T09:00:23;101838.44;;;2.44;73.83
66430;BME280;53242;51.694;10.006;2023-01-24T09:02:45;101845.38;;;2.28;75.16
66430;BME280;53242;51.694;10.006;2023-01-24T09:05:08;101839.88;;;2.50;74.34
66430;BME280;53242;51.694;10.006;2023-01-24T09:07:30;101841.53;;;2.51;74.31
66430;BME280;53242;51.694;10.006;2023-01-24T09:09:53;101844.00;;;2.54;73.55
66430;BME280;53242;51.694;10.006;2023-01-24T09:12:15;101847.34;;;2.72;72.97
66430;BME280;53242;51.694;10.006;2023-01-24T09:14:38;101844.06;;;2.69;73.16
66430;BME280;53242;51.694;10.006;2023-01-24T09:17:00;101845.09;;;2.50;73.08
66430;BME280;53242;51.694;10.006;2023-01-24T09:19:22;101842.41;;;2.52;73.37
66430;BME280;53242;51.694;10.006;2023-01-24T09:21:48;101841.13;;;2.75;72.75
66430;BME280;53242;51.694;10.006;2023-01-24T09:24:14;101844.66;;;2.74;73.10
66430;BME280;53242;51.694;10.006;2023-01-24T09:26:36;101854.56;;;2.83;73.11
66430;BME280;53242;51.694;10.006;2023-01-24T09:28:58;101855.59;;;2.65;73.74
66430;BME280;53242;51.694;10.006;2023-01-24T09:31:21;101844.50;;;2.61;73.64
66430;BME280;53242;51.694;10.006;2023-01-24T09:33:43;101842.91;;;2.42;74.49
66430;BME280;53242;51.694;10.006;2023-01-24T09:36:06;101839.63;;;2.39;74.85
66430;BME280;53242;51.694;10.006;2023-01-24T09:38:30;101843.72;;;2.43;74.33
66430;BME280;53242;51.694;10.006;2023-01-24T09:43:52;101849.41;;;2.18;73.48
66430;BME280;53242;51.694;10.006;2023-01-24T09:46:24;101843.78;;;2.25;73.71
66430;BME280;53242;51.694;10.006;2023-01-24T09:48:54;101848.94;;;2.27;74.17
66430;BME280;53242;51.694;10.006;2023-01-24T09:51:22;101852.56;;;2.40;73.09
66430;BME280;53242;51.694;10.006;2023-01-24T09:53:50;101864.81;;;2.38;73.28
66430;BME280;53242;51.694;10.006;2023-01-24T09:56:41;101864.16;;;2.35;73.13
66430;BME280;53242;51.694;10.006;2023-01-24T09:59:12;101865.84;;;2.52;72.43
66430;BME280;53242;51.694;10.006;2023-01-24T10:01:39;101869.03;;;2.41;73.27
66430;BME280;53242;51.694;10.006;2023-01-24T10:04:02;101856.28;;;2.68;72.35
66430;BME280;53242;51.694;10.006;2023-01-24T10:06:26;101848.78;;;2.62;72.85
66430;BME280;53242;51.694;10.006;2023-01-24T10:09:02;101859.22;;;2.62;73.22
66430;BME280;53242;51.694;10.006;2023-01-24T10:11:51;101851.22;;;2.65;72.93
66430;BME280;53242;51.694;10.006;2023-01-24T10:23:13;101846.34;;;2.59;72.29
66430;BME280;53242;51.694;10.006;2023-01-24T10:25:57;101838.94;;;2.51;73.23
66430;BME280;53242;51.694;10.006;2023-01-24T10:28:32;101840.47;;;2.55;72.33
66430;BME280;53242;51.694;10.006;2023-01-24T10:31:05;101842.72;;;2.61;73.14
66430;BME280;53242;51.694;10.006;2023-01-24T10:33:33;101841.22;;;2.57;73.27
66430;BME280;53242;51.694;10.006;2023-01-24T10:36:00;101843.47;;;2.63;72.49
66430;BME280;53242;51.694;10.006;2023-01-24T10:38:23;101852.72;;;2.53;72.55
66430;BME280;53242;51.694;10.006;2023-01-24T10:40:51;101846.00;;;2.49;73.13
66430;BME280;53242;51.694;10.006;2023-01-24T10:43:13;101853.38;;;2.41;72.93
66430;BME280;53242;51.694;10.006;2023-01-24T10:45:56;101847.03;;;2.46;72.81
66430;BME280;53242;51.694;10.006;2023-01-24T10:48:38;101851.19;;;2.33;72.99
66430;BME280;53242;51.694;10.006;2023-01-24T10:51:17;101858.53;;;2.42;73.45
66430;BME280;53242;51.694;10.006;2023-01-24T10:53:39;101850.03;;;2.55;72.57
66430;BME280;53242;51.694;10.006;2023-01-24T10:56:03;101840.09;;;2.61;72.61
66430;BME280;53242;51.694;10.006;2023-01-24T11:01:08;101844.84;;;2.71;72.42
66430;BME280;53242;51.694;10.006;2023-01-24T11:03:39;101842.38;;;2.68;72.56
66430;BME280;53242;51.694;10.006;2023-01-24T11:06:02;101843.25;;;2.68;72.35
66430;BME280;53242;51.694;10.006;2023-01-24T11:08:35;101843.56;;;2.46;72.23
66430;BME280;53242;51.694;10.006;2023-01-24T11:10:58;101835.06;;;2.58;72.28
66430;BME280;53242;51.694;10.006;2023-01-24T11:15:51;101837.41;;;2.47;72.42
66430;BME280;53242;51.694;10.006;2023-01-24T11:18:25;101843.38;;;2.33;72.20
66430;BME280;53242;51.694;10.006;2023-01-24T11:21:17;101827.84;;;2.47;71.63
66430;BME280;53242;51.694;10.006;2023-01-24T11:23:40;101837.84;;;2.39;73.27
66430;BME280;53242;51.694;10.006;2023-01-24T11:26:04;101832.38;;;2.60;72.29
66430;BME280;53242;51.694;10.006;2023-01-24T11:28:29;101823.66;;;2.45;72.46
66430;BME280;53242;51.694;10.006;2023-01-24T11:30:52;101828.28;;;2.72;71.87
66430;BME280;53242;51.694;10.006;2023-01-24T11:33:33;101823.63;;;2.29;72.13
66430;BME280;53242;51.694;10.006;2023-01-24T11:36:11;101814.81;;;2.63;72.27
66430;BME280;53242;51.694;10.006;2023-01-24T11:38:43;101810.09;;;2.54;72.49
66430;BME280;53242;51.694;10.006;2023-01-24T11:41:15;101813.88;;;2.49;72.17
66430;BME280;53242;51.694;10.006;2023-01-24T11:47:08;101807.06;;;2.62;70.87
66430;BME280;53242;51.694;10.006;2023-01-24T11:49:55;101818.94;;;2.52;72.01
66430;BME280;53242;51.694;10.006;2023-01-24T11:52:35;101816.97;;;2.87;71.17
66430;BME280;53242;51.694;10.006;2023-01-24T11:55:14;101806.13;;;2.79;71.47
66430;BME280;53242;51.694;10.006;2023-01-24T12:00:41;101806.97;;;2.63;71.34
66430;BME280;53242;51.694;10.006;2023-01-24T12:06:17;101803.59;;;2.61;71.92
66430;BME280;53242;51.694;10.006;2023-01-24T12:08:56;101805.56;;;2.58;71.65
66430;BME280;53242;51.694;10.006;2023-01-24T12:11:29;101803.47;;;2.65;71.33
66430;BME280;53242;51.694;10.006;2023-01-24T12:16:41;101805.63;;;2.72;71.30
66430;BME280;53242;51.694;10.006;2023-01-24T12:19:20;101797.22;;;2.67;71.38
66430;BME280;53242;51.694;10.006;2023-01-24T12:21:45;101790.75;;;2.74;71.19
66430;BME280;53242;51.694;10.006;2023-01-24T12:24:18;101791.84;;;2.54;72.19
66430;BME280;53242;51.694;10.006;2023-01-24T12:26:55;101785.53;;;2.58;71.60
66430;BME280;53242;51.694;10.006;2023-01-24T12:29:23;101790.56;;;2.61;72.17
66430;BME280;53242;51.694;10.006;2023-01-24T12:45:34;101768.91;;;2.91;70.91
66430;BME280;53242;51.694;10.006;2023-01-24T12:51:39;101773.22;;;2.92;71.63
66430;BME280;53242;51.694;10.006;2023-01-24T12:54:28;101767.69;;;3.13;70.57
66430;BME280;53242;51.694;10.006;2023-01-24T12:56:55;101761.19;;;2.90;71.60
66430;BME280;53242;51.694;10.006;2023-01-24T12:59:24;101756.84;;;3.05;70.75
66430;BME280;53242;51.694;10.006;2023-01-24T13:05:05;101756.13;;;2.87;70.24
66430;BME280;53242;51.694;10.006;2023-01-24T13:07:44;101759.56;;;2.57;71.61
66430;BME280;53242;51.694;10.006;2023-01-24T13:10:21;101746.53;;;2.57;71.99
66430;BME280;53242;51.694;10.006;2023-01-24T13:12:47;101748.94;;;2.76;71.83
66430;BME280;53242;51.694;10.006;2023-01-24T13:15:18;101749.75;;;2.92;71.00
66430;BME280;53242;51.694;10.006;2023-01-24T13:17:57;101749.16;;;2.87;70.39
66430;BME280;53242;51.694;10.006;2023-01-24T13:20:31;101755.78;;;2.93;70.82
66430;BME280;53242;51.694;10.006;2023-01-24T13:23:11;101751.97;;;2.68;71.09
66430;BME280;53242;51.694;10.006;2023-01-24T13:28:22;101757.28;;;2.67;70.82
66430;BME280;53242;51.694;10.006;2023-01-24T13:31:13;101751.06;;;2.69;69.63
66430;BME280;53242;51.694;10.006;2023-01-24T13:36:16;101744.75;;;2.57;72.15
66430;BME280;53242;51.694;10.006;2023-01-24T13:38:41;101750.00;;;2.41;70.90
66430;BME280;53242;51.694;10.006;2023-01-24T13:41:06;101758.91;;;2.53;71.13
66430;BME280;53242;51.694;10.006;2023-01-24T13:46:08;101754.44;;;2.55;70.86
66430;BME280;53242;51.694;10.006;2023-01-24T13:54:01;101761.59;;;2.52;70.32
66430;BME280;53242;51.694;10.006;2023-01-24T13:56:23;101752.84;;;2.53;70.73
66430;BME280;53242;51.694;10.006;2023-01-24T13:58:50;101753.78;;;2.36;71.55
66430;BME280;53242;51.694;10.006;2023-01-24T14:01:15;101752.84;;;2.37;71.14
66430;BME280;53242;51.694;10.006;2023-01-24T14:03:39;101755.38;;;2.54;70.75
66430;BME280;53242;51.694;10.006;2023-01-24T14:10:50;101765.13;;;2.67;71.07
66430;BME280;53242;51.694;10.006;2023-01-24T14:18:59;101779.34;;;2.13;72.12
66430;BME280;53242;51.694;10.006;2023-01-24T14:21:31;101779.25;;;1.99;72.23